sensor_id;sensor_type;location;lat;lon;timestamp;pressure;altitude;pressure_sealevel;temperature;humidity
44349;BME280;30068;50.986;4.564;2023-05-10T00:01:14;100948.13;;;23.95;58.82
44349;BME280;30068;50.986;4.564;2023-05-10T00:03:39;100942.25;;;23.98;58.66
44349;BME280;30068;50.986;4.564;2023-05-10T00:06:05;100940.38;;;23.99;58.66
44349;BME280;30068;50.986;4.564;2023-05-10T00:08:30;100939.53;;;23.98;58.53
44349;BME280;30068;50.986;4.564;2023-05-10T00:10:55;100947.72;;;23.98;58.59
44349;BME280;30068;50.986;4.564;2023-05-10T00:13:21;100946.03;;;23.97;58.62
44349;BME280;30068;50.986;4.564;2023-05-10T00:15:46;100944.34;;;23.96;58.46
44349;BME280;30068;50.986;4.564;2023-05-10T00:18:11;100946.47;;;23.94;58.33
44349;BME280;30068;50.986;4.564;2023-05-10T00:20:36;100944.78;;;23.93;58.70
44349;BME280;30068;50.986;4.564;2023-05-10T00:23:02;100939.34;;;23.93;58.27
44349;BME280;30068;50.986;4.564;2023-05-10T00:25:27;100935.97;;;23.91;58.38
44349;BME280;30068;50.986;4.564;2023-05-10T00:27:52;100946.69;;;23.93;58.38
44349;BME280;30068;50.986;4.564;2023-05-10T00:30:20;100937.66;;;23.92;58.37
44349;BME280;30068;50.986;4.564;2023-05-10T00:32:45;100939.13;;;23.88;58.48
44349;BME280;30068;50.986;4.564;2023-05-10T00:35:10;100943.97;;;23.86;58.40
44349;BME280;30068;50.986;4.564;2023-05-10T00:37:36;100935.59;;;23.88;58.52
44349;BME280;30068;50.986;4.564;2023-05-10T00:40:01;100941.44;;;23.85;58.42
44349;BME280;30068;50.986;4.564;2023-05-10T00:42:26;100934.09;;;23.85;58.31
44349;BME280;30068;50.986;4.564;2023-05-10T00:44:51;100937.88;;;23.84;58.16
44349;BME280;30068;50.986;4.564;2023-05-10T00:47:17;100939.75;;;23.84;58.43
44349;BME280;30068;50.986;4.564;2023-05-10T00:49:42;100931.78;;;23.82;58.22
44349;BME280;30068;50.986;4.564;2023-05-10T00:52:08;100933.91;;;23.80;58.91
44349;BME280;30068;50.986;4.564;2023-05-10T00:54:33;100929.06;;;23.82;58.52
44349;BME280;30068;50.986;4.564;2023-05-10T00:56:59;100937.69;;;23.79;58.55
44349;BME280;30068;50.986;4.564;2023-05-10T00:59:24;100934.94;;;23.79;58.47
44349;BME280;30068;50.986;4.564;2023-05-10T01:01:50;100934.31;;;23.77;58.88
44349;BME280;30068;50.986;4.564;2023-05-10T01:04:16;100925.50;;;23.75;58.80
44349;BME280;30068;50.986;4.564;2023-05-10T01:06:42;100933.66;;;23.75;58.52
44349;BME280;30068;50.986;4.564;2023-05-10T01:09:07;100925.94;;;23.79;58.40
44349;BME280;30068;50.986;4.564;2023-05-10T01:11:36;100929.28;;;23.74;58.68
44349;BME280;30068;50.986;4.564;2023-05-10T01:14:01;100934.75;;;23.74;58.82
44349;BME280;30068;50.986;4.564;2023-05-10T01:16:27;100926.78;;;23.73;58.70
44349;BME280;30068;50.986;4.564;2023-05-10T01:18:54;100936.41;;;23.75;58.34
44349;BME280;30068;50.986;4.564;2023-05-10T01:29:14;100934.75;;;23.68;58.69
44349;BME280;30068;50.986;4.564;2023-05-10T01:34:26;100936.00;;;23.65;58.76
44349;BME280;30068;50.986;4.564;2023-05-10T01:36:58;100931.38;;;23.66;58.92
44349;BME280;30068;50.986;4.564;2023-05-10T01:41:51;100940.41;;;23.66;58.71
44349;BME280;30068;50.986;4.564;2023-05-10T01:44:20;100937.88;;;23.65;58.79
44349;BME280;30068;50.986;4.564;2023-05-10T01:46:52;100936.00;;;23.65;58.66
44349;BME280;30068;50.986;4.564;2023-05-10T01:49:29;100941.84;;;23.62;58.85
44349;BME280;30068;50.986;4.564;2023-05-10T01:51:57;100939.13;;;23.62;58.73
44349;BME280;30068;50.986;4.564;2023-05-10T01:54:24;100939.97;;;23.62;58.71
44349;BME280;30068;50.986;4.564;2023-05-10T01:56:52;100932.44;;;23.58;58.68
44349;BME280;30068;50.986;4.564;2023-05-10T01:59:20;100933.28;;;23.58;58.90
44349;BME280;30068;50.986;4.564;2023-05-10T02:01:47;100936.84;;;23.59;58.52
44349;BME280;30068;50.986;4.564;2023-05-10T02:04:13;100937.88;;;23.58;58.84
44349;BME280;30068;50.986;4.564;2023-05-10T02:06:40;100945.84;;;23.59;58.92
44349;BME280;30068;50.986;4.564;2023-05-10T02:09:07;100951.50;;;23.58;58.81
44349;BME280;30068;50.986;4.564;2023-05-10T02:11:33;100949.81;;;23.57;58.70
44349;BME280;30068;50.986;4.564;2023-05-10T02:13:58;100953.59;;;23.56;58.70
44349;BME280;30068;50.986;4.564;2023-05-10T02:16:26;100947.09;;;23.57;58.78
44349;BME280;30068;50.986;4.564;2023-05-10T02:18:52;100948.13;;;23.56;58.89
44349;BME280;30068;50.986;4.564;2023-05-10T02:21:17;100959.22;;;23.54;58.75
44349;BME280;30068;50.986;4.564;2023-05-10T02:23:44;100958.63;;;23.52;58.91
44349;BME280;30068;50.986;4.564;2023-05-10T02:26:10;100959.47;;;23.53;58.87
44349;BME280;30068;50.986;4.564;2023-05-10T02:28:36;100955.06;;;23.52;58.80
44349;BME280;30068;50.986;4.564;2023-05-10T02:31:02;100962.19;;;23.53;58.73
44349;BME280;30068;50.986;4.564;2023-05-10T02:33:28;100963.44;;;23.50;58.94
44349;BME280;30068;50.986;4.564;2023-05-10T02:35:55;100967.00;;;23.51;58.96
44349;BME280;30068;50.986;4.564;2023-05-10T02:38:21;100967.00;;;23.51;58.95
44349;BME280;30068;50.986;4.564;2023-05-10T02:40:47;100971.81;;;23.49;58.71
44349;BME280;30068;50.986;4.564;2023-05-10T02:43:14;100978.09;;;23.49;58.62
44349;BME280;30068;50.986;4.564;2023-05-10T02:45:40;100973.88;;;23.47;58.98
44349;BME280;30068;50.986;4.564;2023-05-10T02:48:06;100979.34;;;23.47;58.93
44349;BME280;30068;50.986;4.564;2023-05-10T02:50:32;100981.22;;;23.46;58.68
44349;BME280;30068;50.986;4.564;2023-05-10T02:53:01;100978.28;;;23.48;58.87
44349;BME280;30068;50.986;4.564;2023-05-10T02:55:31;100984.78;;;23.47;58.97
44349;BME280;30068;50.986;4.564;2023-05-10T02:58:01;100985.81;;;23.46;58.87
44349;BME280;30068;50.986;4.564;2023-05-10T03:00:26;100994.84;;;23.46;58.94
44349;BME280;30068;50.986;4.564;2023-05-10T03:02:52;100986.03;;;23.44;58.70
44349;BME280;30068;50.986;4.564;2023-05-10T03:05:17;100989.78;;;23.43;58.69
44349;BME280;30068;50.986;4.564;2023-05-10T03:07:43;100987.06;;;23.43;59.00
44349;BME280;30068;50.986;4.564;2023-05-10T03:10:08;100990.63;;;23.44;58.75
44349;BME280;30068;50.986;4.564;2023-05-10T03:12:50;100988.94;;;23.43;58.96
44349;BME280;30068;50.986;4.564;2023-05-10T03:15:19;100991.88;;;23.41;58.72
44349;BME280;30068;50.986;4.564;2023-05-10T03:17:48;100994.41;;;23.43;58.93
44349;BME280;30068;50.986;4.564;2023-05-10T03:20:24;100989.97;;;23.42;58.87
44349;BME280;30068;50.986;4.564;2023-05-10T03:22:55;100990.22;;;23.40;58.71
44349;BME280;30068;50.986;4.564;2023-05-10T03:25:25;100994.81;;;23.40;59.10
44349;BME280;30068;50.986;4.564;2023-05-10T03:27:51;101000.47;;;23.38;58.94
44349;BME280;30068;50.986;4.564;2023-05-10T03:30:16;101001.31;;;23.39;58.87
44349;BME280;30068;50.986;4.564;2023-05-10T03:32:42;101004.03;;;23.39;58.93
44349;BME280;30068;50.986;4.564;2023-05-10T03:35:10;100998.78;;;23.37;59.19
44349;BME280;30068;50.986;4.564;2023-05-10T03:37:37;101000.66;;;23.37;59.10
44349;BME280;30068;50.986;4.564;2023-05-10T03:40:02;101005.28;;;23.36;58.91
44349;BME280;30068;50.986;4.564;2023-05-10T03:42:28;101003.81;;;23.34;59.16
44349;BME280;30068;50.986;4.564;2023-05-10T03:44:53;101016.16;;;23.30;59.10
44349;BME280;30068;50.986;4.564;2023-05-10T03:47:18;101019.72;;;23.30;58.90
44349;BME280;30068;50.986;4.564;2023-05-10T03:49:43;101015.75;;;23.33;58.99
44349;BME280;30068;50.986;4.564;2023-05-10T03:52:09;101016.91;;;22.69;60.74
44349;BME280;30068;50.986;4.564;2023-05-10T03:54:34;101029.09;;;22.45;61.80
44349;BME280;30068;50.986;4.564;2023-05-10T03:56:59;101026.38;;;22.73;60.97
44349;BME280;30068;50.986;4.564;2023-05-10T03:59:25;101021.50;;;22.69;61.26
44349;BME280;30068;50.986;4.564;2023-05-10T04:01:51;101034.16;;;22.76;61.01
44349;BME280;30068;50.986;4.564;2023-05-10T04:04:16;101029.09;;;22.73;61.27
44349;BME280;30068;50.986;4.564;2023-05-10T04:06:43;101039.19;;;22.86;60.52
44349;BME280;30068;50.986;4.564;2023-05-10T04:09:08;101034.22;;;22.90;60.52
44349;BME280;30068;50.986;4.564;2023-05-10T04:11:34;101037.91;;;22.75;61.21
44349;BME280;30068;50.986;4.564;2023-05-10T04:13:59;101044.88;;;22.57;61.47
44349;BME280;30068;50.986;4.564;2023-05-10T04:16:24;101042.31;;;22.49;61.67
44349;BME280;30068;50.986;4.564;2023-05-10T04:18:49;101039.13;;;22.73;61.19
44349;BME280;30068;50.986;4.564;2023-05-10T04:21:15;101037.53;;;22.85;61.04
44349;BME280;30068;50.986;4.564;2023-05-10T04:23:40;101033.72;;;22.79;61.01
44349;BME280;30068;50.986;4.564;2023-05-10T04:26:06;101027.84;;;22.76;60.80
44349;BME280;30068;50.986;4.564;2023-05-10T04:28:31;101036.31;;;22.60;61.36
44349;BME280;30068;50.986;4.564;2023-05-10T04:31:00;101038.38;;;22.86;60.86
44349;BME280;30068;50.986;4.564;2023-05-10T04:33:25;101042.03;;;22.99;60.42
44349;BME280;30068;50.986;4.564;2023-05-10T04:35:51;101040.53;;;22.97;60.42
44349;BME280;30068;50.986;4.564;2023-05-10T04:38:16;101042.91;;;23.13;60.08
44349;BME280;30068;50.986;4.564;2023-05-10T04:40:41;101042.72;;;23.28;59.33
44349;BME280;30068;50.986;4.564;2023-05-10T04:43:06;101043.22;;;23.44;59.12
44349;BME280;30068;50.986;4.564;2023-05-10T04:45:32;101043.59;;;23.35;59.32
44349;BME280;30068;50.986;4.564;2023-05-10T04:47:57;101043.38;;;23.30;59.45
44349;BME280;30068;50.986;4.564;2023-05-10T04:50:22;101043.09;;;23.05;60.01
44349;BME280;30068;50.986;4.564;2023-05-10T04:52:47;101039.50;;;22.98;60.40
44349;BME280;30068;50.986;4.564;2023-05-10T04:55:12;101048.19;;;23.28;59.74
44349;BME280;30068;50.986;4.564;2023-05-10T04:57:38;101045.25;;;23.29;59.42
44349;BME280;30068;50.986;4.564;2023-05-10T05:00:04;101049.25;;;23.27;59.56
44349;BME280;30068;50.986;4.564;2023-05-10T05:02:29;101047.34;;;23.27;59.40
44349;BME280;30068;50.986;4.564;2023-05-10T05:04:55;101047.59;;;23.39;59.39
44349;BME280;30068;50.986;4.564;2023-05-10T05:07:22;101049.91;;;23.42;59.29
44349;BME280;30068;50.986;4.564;2023-05-10T05:09:47;101046.16;;;23.43;59.04
44349;BME280;30068;50.986;4.564;2023-05-10T05:12:13;101048.91;;;23.49;58.83
44349;BME280;30068;50.986;4.564;2023-05-10T05:14:39;101044.72;;;23.47;58.98
44349;BME280;30068;50.986;4.564;2023-05-10T05:17:04;101044.94;;;23.52;58.76
44349;BME280;30068;50.986;4.564;2023-05-10T05:19:30;101044.53;;;23.61;58.34
44349;BME280;30068;50.986;4.564;2023-05-10T05:21:55;101057.56;;;23.66;58.56
44349;BME280;30068;50.986;4.564;2023-05-10T05:24:21;101049.59;;;23.71;58.38
44349;BME280;30068;50.986;4.564;2023-05-10T05:26:46;101056.09;;;23.70;58.38
44349;BME280;30068;50.986;4.564;2023-05-10T05:29:12;101052.75;;;23.75;58.04
44349;BME280;30068;50.986;4.564;2023-05-10T05:31:37;101062.19;;;23.79;58.26
44349;BME280;30068;50.986;4.564;2023-05-10T05:34:02;101062.41;;;23.77;57.96
44349;BME280;30068;50.986;4.564;2023-05-10T05:36:28;101072.25;;;23.78;58.19
44349;BME280;30068;50.986;4.564;2023-05-10T05:38:53;101069.13;;;23.81;57.70
44349;BME280;30068;50.986;4.564;2023-05-10T05:41:18;101081.69;;;23.82;57.86
44349;BME280;30068;50.986;4.564;2023-05-10T05:43:43;101078.97;;;23.82;57.93
44349;BME280;30068;50.986;4.564;2023-05-10T05:46:08;101080.84;;;23.88;57.54
44349;BME280;30068;50.986;4.564;2023-05-10T05:48:34;101082.53;;;23.83;57.68
44349;BME280;30068;50.986;4.564;2023-05-10T05:50:59;101077.25;;;23.75;57.86
44349;BME280;30068;50.986;4.564;2023-05-10T05:53:24;101080.78;;;23.55;58.45
44349;BME280;30068;50.986;4.564;2023-05-10T05:55:53;101081.22;;;23.59;58.22
44349;BME280;30068;50.986;4.564;2023-05-10T05:58:19;101089.63;;;23.71;57.83
44349;BME280;30068;50.986;4.564;2023-05-10T06:00:44;101092.16;;;23.72;57.90
44349;BME280;30068;50.986;4.564;2023-05-10T06:03:10;101085.44;;;23.75;57.67
44349;BME280;30068;50.986;4.564;2023-05-10T06:05:35;101086.06;;;23.70;57.96
44349;BME280;30068;50.986;4.564;2023-05-10T06:08:00;101088.41;;;23.73;58.22
44349;BME280;30068;50.986;4.564;2023-05-10T06:10:26;101090.69;;;23.76;57.55
44349;BME280;30068;50.986;4.564;2023-05-10T06:12:51;101084.81;;;23.73;57.63
44349;BME280;30068;50.986;4.564;2023-05-10T06:15:17;101099.50;;;23.78;58.20
44349;BME280;30068;50.986;4.564;2023-05-10T06:17:43;101100.16;;;23.80;57.76
44349;BME280;30068;50.986;4.564;2023-05-10T06:20:09;101097.19;;;23.82;57.43
44349;BME280;30068;50.986;4.564;2023-05-10T06:22:34;101106.44;;;23.81;57.54
44349;BME280;30068;50.986;4.564;2023-05-10T06:25:00;101102.88;;;23.80;57.43
44349;BME280;30068;50.986;4.564;2023-05-10T06:27:25;101105.16;;;23.83;57.59
44349;BME280;30068;50.986;4.564;2023-05-10T06:29:50;101105.16;;;23.83;57.61
44349;BME280;30068;50.986;4.564;2023-05-10T06:32:16;101110.81;;;23.75;57.39
44349;BME280;30068;50.986;4.564;2023-05-10T06:34:41;101109.16;;;23.81;57.51
44349;BME280;30068;50.986;4.564;2023-05-10T06:37:08;101106.84;;;23.84;57.33
44349;BME280;30068;50.986;4.564;2023-05-10T06:39:33;101112.94;;;23.86;57.65
44349;BME280;30068;50.986;4.564;2023-05-10T06:41:58;101115.03;;;23.84;57.39
44349;BME280;30068;50.986;4.564;2023-05-10T06:44:24;101119.44;;;23.85;57.38
44349;BME280;30068;50.986;4.564;2023-05-10T06:46:49;101127.41;;;23.80;57.57
44349;BME280;30068;50.986;4.564;2023-05-10T06:49:14;101123.63;;;23.81;57.32
44349;BME280;30068;50.986;4.564;2023-05-10T06:51:40;101122.16;;;23.79;57.52
44349;BME280;30068;50.986;4.564;2023-05-10T06:54:05;101130.34;;;23.79;57.32
44349;BME280;30068;50.986;4.564;2023-05-10T06:56:31;101126.38;;;23.81;57.19
44349;BME280;30068;50.986;4.564;2023-05-10T06:58:56;101129.91;;;23.82;57.12
44349;BME280;30068;50.986;4.564;2023-05-10T07:01:21;101130.75;;;23.82;57.40
44349;BME280;30068;50.986;4.564;2023-05-10T07:03:46;101125.72;;;23.79;57.36
44349;BME280;30068;50.986;4.564;2023-05-10T07:06:12;101138.31;;;23.80;57.21
44349;BME280;30068;50.986;4.564;2023-05-10T07:08:37;101137.88;;;23.77;57.30
44349;BME280;30068;50.986;4.564;2023-05-10T07:11:02;101139.34;;;23.79;57.51
44349;BME280;30068;50.986;4.564;2023-05-10T07:13:28;101142.66;;;23.68;57.70
44349;BME280;30068;50.986;4.564;2023-05-10T07:15:54;101146.22;;;23.69;57.68
44349;BME280;30068;50.986;4.564;2023-05-10T07:18:19;101152.53;;;23.76;57.30
44349;BME280;30068;50.986;4.564;2023-05-10T07:20:44;101145.19;;;23.76;57.22
44349;BME280;30068;50.986;4.564;2023-05-10T07:23:09;101150.84;;;23.75;57.35
44349;BME280;30068;50.986;4.564;2023-05-10T07:25:34;101154.41;;;23.75;57.28
44349;BME280;30068;50.986;4.564;2023-05-10T07:28:00;101157.78;;;23.77;57.13
44349;BME280;30068;50.986;4.564;2023-05-10T07:30:25;101153.81;;;23.73;57.49
44349;BME280;30068;50.986;4.564;2023-05-10T07:32:50;101164.47;;;23.75;57.26
44349;BME280;30068;50.986;4.564;2023-05-10T07:35:16;101158.22;;;23.74;57.21
44349;BME280;30068;50.986;4.564;2023-05-10T07:37:41;101158.22;;;23.74;57.08
44349;BME280;30068;50.986;4.564;2023-05-10T07:40:06;101165.31;;;23.75;57.30
44349;BME280;30068;50.986;4.564;2023-05-10T07:42:32;101172.88;;;23.73;57.51
44349;BME280;30068;50.986;4.564;2023-05-10T07:44:57;101172.03;;;23.73;57.52
44349;BME280;30068;50.986;4.564;2023-05-10T07:47:22;101172.03;;;23.73;57.28
44349;BME280;30068;50.986;4.564;2023-05-10T07:49:48;101172.22;;;23.71;57.56
44349;BME280;30068;50.986;4.564;2023-05-10T07:52:13;101177.69;;;23.71;57.15
44349;BME280;30068;50.986;4.564;2023-05-10T07:54:39;101167.63;;;23.72;56.95
44349;BME280;30068;50.986;4.564;2023-05-10T07:57:04;101177.69;;;23.71;57.31
44349;BME280;30068;50.986;4.564;2023-05-10T07:59:29;101178.06;;;23.68;57.18
44349;BME280;30068;50.986;4.564;2023-05-10T08:01:55;101187.94;;;23.69;57.50
44349;BME280;30068;50.986;4.564;2023-05-10T08:04:21;101184.59;;;23.67;57.54
44349;BME280;30068;50.986;4.564;2023-05-10T08:06:46;101184.59;;;23.67;57.13
44349;BME280;30068;50.986;4.564;2023-05-10T08:09:11;101188.34;;;23.66;57.51
44349;BME280;30068;50.986;4.564;2023-05-10T08:11:36;101186.66;;;23.65;57.10
44349;BME280;30068;50.986;4.564;2023-05-10T08:14:02;101191.47;;;23.63;57.08
44349;BME280;30068;50.986;4.564;2023-05-10T08:16:27;101190.25;;;23.66;57.22
44349;BME280;30068;50.986;4.564;2023-05-10T08:18:52;101193.34;;;23.62;57.38
44349;BME280;30068;50.986;4.564;2023-05-10T08:21:20;101198.59;;;23.64;57.20
44349;BME280;30068;50.986;4.564;2023-05-10T08:23:45;101194.41;;;23.61;57.31
44349;BME280;30068;50.986;4.564;2023-05-10T08:26:10;101201.72;;;23.61;57.34
44349;BME280;30068;50.986;4.564;2023-05-10T08:28:36;101199.00;;;23.61;57.19
44349;BME280;30068;50.986;4.564;2023-05-10T08:31:01;101202.38;;;23.63;57.43
44349;BME280;30068;50.986;4.564;2023-05-10T08:33:26;101205.09;;;23.63;57.32
44349;BME280;30068;50.986;4.564;2023-05-10T08:35:51;101205.09;;;23.63;57.07
44349;BME280;30068;50.986;4.564;2023-05-10T08:38:17;101217.09;;;23.41;55.68
44349;BME280;30068;50.986;4.564;2023-05-10T08:40:43;101212.78;;;23.18;55.10
44349;BME280;30068;50.986;4.564;2023-05-10T08:43:09;101213.88;;;23.24;55.44
44349;BME280;30068;50.986;4.564;2023-05-10T08:45:38;101217.03;;;23.28;55.58
44349;BME280;30068;50.986;4.564;2023-05-10T08:48:10;101208.63;;;23.22;55.76
44349;BME280;30068;50.986;4.564;2023-05-10T08:50:36;101224.56;;;23.26;55.73
44349;BME280;30068;50.986;4.564;2023-05-10T08:53:03;101228.31;;;23.24;55.74
44349;BME280;30068;50.986;4.564;2023-05-10T08:55:29;101230.22;;;23.24;55.85
44349;BME280;30068;50.986;4.564;2023-05-10T08:57:55;101228.53;;;23.23;55.99
44349;BME280;30068;50.986;4.564;2023-05-10T09:00:20;101228.97;;;23.27;55.96
44349;BME280;30068;50.986;4.564;2023-05-10T09:02:48;101232.09;;;23.23;56.03
44349;BME280;30068;50.986;4.564;2023-05-10T09:05:14;101230.41;;;23.22;56.19
44349;BME280;30068;50.986;4.564;2023-05-10T09:07:41;101242.97;;;23.23;56.34
44349;BME280;30068;50.986;4.564;2023-05-10T09:10:06;101238.19;;;23.26;55.80
44349;BME280;30068;50.986;4.564;2023-05-10T09:12:32;101244.66;;;23.24;56.10
44349;BME280;30068;50.986;4.564;2023-05-10T09:14:58;101250.31;;;23.23;56.09
44349;BME280;30068;50.986;4.564;2023-05-10T09:17:24;101248.84;;;23.27;55.96
44349;BME280;30068;50.986;4.564;2023-05-10T09:19:56;101248.44;;;23.23;56.33
44349;BME280;30068;50.986;4.564;2023-05-10T09:22:21;101247.59;;;23.23;56.17
44349;BME280;30068;50.986;4.564;2023-05-10T09:24:47;101263.06;;;23.22;56.35
44349;BME280;30068;50.986;4.564;2023-05-10T09:27:12;101262.41;;;23.20;56.11
44349;BME280;30068;50.986;4.564;2023-05-10T09:29:41;101264.09;;;23.21;56.12
44349;BME280;30068;50.986;4.564;2023-05-10T09:32:07;101258.47;;;23.23;56.17
44349;BME280;30068;50.986;4.564;2023-05-10T09:34:32;101266.84;;;23.21;56.18
44349;BME280;30068;50.986;4.564;2023-05-10T09:37:00;101262.69;;;22.98;54.44
44349;BME280;30068;50.986;4.564;2023-05-10T09:41:57;101269.88;;;21.76;54.45
44349;BME280;30068;50.986;4.564;2023-05-10T09:44:22;101269.66;;;22.07;54.62
44349;BME280;30068;50.986;4.564;2023-05-10T09:46:48;101277.47;;;22.10;54.83
44349;BME280;30068;50.986;4.564;2023-05-10T09:49:14;101278.63;;;22.22;55.23
44349;BME280;30068;50.986;4.564;2023-05-10T09:51:39;101282.19;;;22.23;55.40
44349;BME280;30068;50.986;4.564;2023-05-10T09:54:11;101283.88;;;22.24;55.28
44349;BME280;30068;50.986;4.564;2023-05-10T09:56:37;101282.28;;;22.29;55.51
44349;BME280;30068;50.986;4.564;2023-05-10T09:59:05;101278.97;;;22.34;55.31
44349;BME280;30068;50.986;4.564;2023-05-10T10:01:30;101277.75;;;22.36;55.62
44349;BME280;30068;50.986;4.564;2023-05-10T10:03:56;101283.25;;;22.43;55.62
44349;BME280;30068;50.986;4.564;2023-05-10T10:06:24;101279.97;;;22.48;55.43
44349;BME280;30068;50.986;4.564;2023-05-10T10:08:50;101281.28;;;22.52;55.38
44349;BME280;30068;50.986;4.564;2023-05-10T10:11:16;101280.28;;;22.59;55.21
44349;BME280;30068;50.986;4.564;2023-05-10T10:13:41;101280.09;;;22.61;55.47
44349;BME280;30068;50.986;4.564;2023-05-10T10:16:07;101279.06;;;22.62;55.33
44349;BME280;30068;50.986;4.564;2023-05-10T10:18:33;101283.06;;;22.66;55.52
44349;BME280;30068;50.986;4.564;2023-05-10T10:20:58;101285.22;;;22.70;55.34
44349;BME280;30068;50.986;4.564;2023-05-10T10:23:24;101290.28;;;22.73;55.28
44349;BME280;30068;50.986;4.564;2023-05-10T10:25:49;101296.38;;;22.75;55.41
44349;BME280;30068;50.986;4.564;2023-05-10T10:28:32;101291.13;;;22.74;55.35
44349;BME280;30068;50.986;4.564;2023-05-10T10:31:00;101295.53;;;22.75;55.59
44349;BME280;30068;50.986;4.564;2023-05-10T10:36:11;101290.94;;;22.75;55.65
44349;BME280;30068;50.986;4.564;2023-05-10T10:41:26;101294.94;;;22.79;55.72
44349;BME280;30068;50.986;4.564;2023-05-10T10:46:51;101295.41;;;22.83;55.54
44349;BME280;30068;50.986;4.564;2023-05-10T10:49:22;101289.13;;;22.82;55.50
44349;BME280;30068;50.986;4.564;2023-05-10T10:54:32;101295.41;;;22.83;55.48
44349;BME280;30068;50.986;4.564;2023-05-10T10:57:13;101298.78;;;22.85;55.52
44349;BME280;30068;50.986;4.564;2023-05-10T10:59:42;101296.69;;;22.87;55.42
44349;BME280;30068;50.986;4.564;2023-05-10T11:04:55;101296.69;;;22.87;55.69
44349;BME280;30068;50.986;4.564;2023-05-10T11:07:21;101291.25;;;22.87;55.51
44349;BME280;30068;50.986;4.564;2023-05-10T11:09:49;101292.28;;;22.86;55.85
44349;BME280;30068;50.986;4.564;2023-05-10T11:12:14;101292.94;;;22.88;55.63
44349;BME280;30068;50.986;4.564;2023-05-10T11:14:39;101286.03;;;22.86;55.76
44349;BME280;30068;50.986;4.564;2023-05-10T11:17:24;101288.16;;;22.90;55.51
44349;BME280;30068;50.986;4.564;2023-05-10T11:20:03;101296.31;;;22.90;55.42
44349;BME280;30068;50.986;4.564;2023-05-10T11:22:31;101299.22;;;22.89;55.60
44349;BME280;30068;50.986;4.564;2023-05-10T11:25:13;101294.63;;;22.89;55.62
44349;BME280;30068;50.986;4.564;2023-05-10T11:27:38;101294.44;;;22.91;55.43
44349;BME280;30068;50.986;4.564;2023-05-10T11:30:05;101300.06;;;22.89;55.50
44349;BME280;30068;50.986;4.564;2023-05-10T11:32:31;101299.22;;;22.89;55.70
44349;BME280;30068;50.986;4.564;2023-05-10T11:34:57;101302.63;;;22.91;55.70
44349;BME280;30068;50.986;4.564;2023-05-10T11:37:22;101299.03;;;22.90;55.44
44349;BME280;30068;50.986;4.564;2023-05-10T11:39:47;101296.31;;;22.90;55.41
44349;BME280;30068;50.986;4.564;2023-05-10T11:42:12;101295.28;;;22.91;55.55
44349;BME280;30068;50.986;4.564;2023-05-10T11:44:38;101297.16;;;22.91;55.56
44349;BME280;30068;50.986;4.564;2023-05-10T11:47:03;101296.13;;;22.92;55.75
44349;BME280;30068;50.986;4.564;2023-05-10T11:49:28;101296.13;;;22.92;55.88
44349;BME280;30068;50.986;4.564;2023-05-10T11:52:03;101301.75;;;22.90;55.78
44349;BME280;30068;50.986;4.564;2023-05-10T11:54:28;101300.72;;;22.91;55.88
44349;BME280;30068;50.986;4.564;2023-05-10T11:56:53;101298.97;;;22.83;55.71
44349;BME280;30068;50.986;4.564;2023-05-10T11:59:19;101301.25;;;22.80;55.01
44349;BME280;30068;50.986;4.564;2023-05-10T12:01:44;101295.16;;;22.78;55.54
44349;BME280;30068;50.986;4.564;2023-05-10T12:04:09;101302.09;;;22.80;55.72
44349;BME280;30068;50.986;4.564;2023-05-10T12:06:37;101297.47;;;22.81;55.63
44349;BME280;30068;50.986;4.564;2023-05-10T12:09:06;101293.72;;;22.82;55.65
44349;BME280;30068;50.986;4.564;2023-05-10T12:11:32;101286.41;;;22.82;55.72
44349;BME280;30068;50.986;4.564;2023-05-10T12:14:03;101291.19;;;22.80;55.63
44349;BME280;30068;50.986;4.564;2023-05-10T12:16:29;101292.03;;;22.81;55.93
44349;BME280;30068;50.986;4.564;2023-05-10T12:18:58;101296.44;;;22.82;55.72
44349;BME280;30068;50.986;4.564;2023-05-10T12:21:24;101297.47;;;22.81;56.01
44349;BME280;30068;50.986;4.564;2023-05-10T12:23:50;101300.03;;;22.82;55.77
44349;BME280;30068;50.986;4.564;2023-05-10T12:26:16;101291.00;;;22.82;55.95
44349;BME280;30068;50.986;4.564;2023-05-10T12:28:41;101289.78;;;22.84;55.72
44349;BME280;30068;50.986;4.564;2023-05-10T12:31:06;101292.50;;;22.84;55.74
44349;BME280;30068;50.986;4.564;2023-05-10T12:33:39;101293.34;;;22.85;55.87
44349;BME280;30068;50.986;4.564;2023-05-10T12:36:07;101291.25;;;22.87;55.77
44349;BME280;30068;50.986;4.564;2023-05-10T12:38:33;101294.63;;;22.89;55.92
44349;BME280;30068;50.986;4.564;2023-05-10T12:40:59;101294.63;;;22.89;55.85
44349;BME280;30068;50.986;4.564;2023-05-10T12:43:25;101299.69;;;22.92;55.77
44349;BME280;30068;50.986;4.564;2023-05-10T12:45:50;101296.97;;;22.92;55.97
44349;BME280;30068;50.986;4.564;2023-05-10T12:48:15;101295.91;;;22.93;55.89
44349;BME280;30068;50.986;4.564;2023-05-10T12:50:41;101295.91;;;22.93;55.95
44349;BME280;30068;50.986;4.564;2023-05-10T12:53:06;101295.53;;;22.96;56.13
44349;BME280;30068;50.986;4.564;2023-05-10T12:55:31;101292.63;;;22.98;56.07
44349;BME280;30068;50.986;4.564;2023-05-10T12:57:57;101297.03;;;22.99;55.98
44349;BME280;30068;50.986;4.564;2023-05-10T13:00:22;101297.03;;;22.99;56.05
44349;BME280;30068;50.986;4.564;2023-05-10T13:02:47;101298.50;;;23.01;56.06
44349;BME280;30068;50.986;4.564;2023-05-10T13:05:12;101301.88;;;23.03;55.86
44349;BME280;30068;50.986;4.564;2023-05-10T13:07:38;101300.66;;;23.06;55.94
44349;BME280;30068;50.986;4.564;2023-05-10T13:10:03;101302.53;;;23.05;55.89
44349;BME280;30068;50.986;4.564;2023-05-10T13:12:29;101310.72;;;23.05;55.99
44349;BME280;30068;50.986;4.564;2023-05-10T13:14:54;101306.94;;;23.06;55.74